Time;durP1;ratioP1;P1;durP2;ratioP2;P2;SDS_P1;SDS_P2;PMS_P1;PMS_P2;Temp;Humidity;BMP_temperature;BMP_pressure;BME280_temperature;BME280_humidity;BME280_pressure;Samples;Min_cycle;Max_cycle;Signal;HPM_P1;HPM_P2
2022/02/07 00:00:40;;;;;;;6.72;5.25;;;;;;;9.96;55.62;98554.56;1741277;81;21063;-66
2022/02/07 00:03:16;;;;;;;5.53;4.28;;;;;;;9.94;55.59;98550.47;1738573;81;21009;-65
2022/02/07 00:05:38;;;;;;;5.72;5.12;;;;;;;9.94;55.54;98557.91;1739750;81;21116;-66
2022/02/07 00:08:06;;;;;;;5.75;4.60;;;;;;;9.92;55.51;98554.63;1745605;81;21545;-65
2022/02/07 00:10:32;;;;;;;6.00;5.08;;;;;;;9.94;55.48;98554.45;1745374;81;21137;-66
2022/02/07 00:13:01;;;;;;;6.20;4.60;;;;;;;9.94;55.45;98569.03;1698820;81;21093;-65
2022/02/07 00:15:27;;;;;;;6.05;4.87;;;;;;;9.93;55.43;98560.27;1749417;81;21066;-66
2022/02/07 00:17:54;;;;;;;5.45;4.53;;;;;;;9.86;55.38;98527.55;1755265;81;21049;-66
2022/02/07 00:20:23;;;;;;;5.47;4.55;;;;;;;9.90;55.34;98539.41;1754296;81;21548;-67
2022/02/07 00:22:50;;;;;;;7.15;5.65;;;;;;;9.92;55.33;98536.06;1740345;81;21125;-66
2022/02/07 00:25:19;;;;;;;5.95;5.03;;;;;;;9.82;55.28;98522.33;1752271;81;21535;-65
2022/02/07 00:27:47;;;;;;;5.65;4.80;;;;;;;9.91;55.26;98533.59;1746024;81;21081;-66
2022/02/07 00:30:16;;;;;;;5.30;4.75;;;;;;;9.90;55.24;98535.44;1757731;81;21092;-65
2022/02/07 00:32:45;;;;;;;5.70;4.62;;;;;;;9.90;55.20;98535.95;1754638;81;21072;-66
2022/02/07 00:35:15;;;;;;;6.25;4.90;;;;;;;9.89;55.18;98525.86;1739172;81;21222;-65
2022/02/07 00:37:45;;;;;;;5.05;4.25;;;;;;;9.89;55.17;98511.75;1750996;81;21252;-66
2022/02/07 00:42:59;;;;;;;5.70;4.58;;;;;;;9.88;55.08;98516.24;1748987;81;21052;-67
2022/02/07 00:46:03;;;;;;;4.85;4.42;;;;;;;9.88;55.06;98510.94;1758728;81;21041;-65
2022/02/07 00:48:00;;;;;;;4.80;4.30;;;;;;;9.87;55.04;98511.97;1740034;81;21230;-65
2022/02/07 00:50:26;;;;;;;4.97;4.47;;;;;;;9.86;55.03;98502.36;1758470;81;21085;-65
2022/02/07 00:52:53;;;;;;;5.45;4.87;;;;;;;9.85;55.00;98499.41;1757578;81;21158;-65
2022/02/07 00:55:19;;;;;;;5.87;4.72;;;;;;;9.86;54.99;98495.73;1748667;81;21085;-64
2022/02/07 00:57:46;;;;;;;6.33;5.05;;;;;;;9.85;54.94;98494.10;1713025;82;21068;-65
2022/02/07 01:00:14;;;;;;;6.47;4.90;;;;;;;9.83;54.95;98485.48;1744492;81;22268;-64
2022/02/07 01:02:41;;;;;;;5.67;4.35;;;;;;;9.84;54.91;98477.34;1746523;81;21040;-67
2022/02/07 01:05:08;;;;;;;5.28;4.22;;;;;;;9.84;54.90;98476.53;1769801;81;21053;-66
2022/02/07 01:07:35;;;;;;;4.92;4.35;;;;;;;9.83;54.86;98466.44;1744151;81;21031;-67
2022/02/07 01:10:05;;;;;;;7.08;4.50;;;;;;;9.83;54.85;98457.16;1756392;81;21024;-65
2022/02/07 01:18:28;;;;;;;5.12;4.37;;;;;;;9.82;54.77;98453.36;1764840;81;21076;-64
2022/02/07 01:20:57;;;;;;;5.30;4.40;;;;;;;9.82;54.76;98444.89;1760164;81;21017;-64
2022/02/07 01:23:44;;;;;;;5.97;4.83;;;;;;;9.81;54.73;98441.95;1740449;81;21009;-64
2022/02/07 01:47:46;;;;;;;4.25;3.85;;;;;;;9.74;54.61;98385.38;1753631;81;21029;-66
2022/02/07 01:52:45;;;;;;;5.10;4.37;;;;;;;9.73;54.58;98375.77;1764030;81;21228;-64
2022/02/07 01:55:19;;;;;;;4.80;3.77;;;;;;;9.73;54.55;98365.16;1756368;81;21029;-65
2022/02/07 01:57:39;;;;;;;5.60;4.37;;;;;;;9.74;54.53;98360.19;1756251;81;21013;-64
2022/02/07 02:00:08;;;;;;;6.62;5.12;;;;;;;9.73;54.51;98349.77;1765601;80;21032;-65
2022/02/07 02:02:37;;;;;;;5.47;4.37;;;;;;;9.73;54.50;98355.08;1765320;81;21037;-65
2022/02/07 02:05:05;;;;;;;5.20;4.33;;;;;;;9.73;54.49;98346.61;1758227;81;21123;-63
2022/02/07 02:07:34;;;;;;;5.45;4.22;;;;;;;9.74;54.46;98343.47;1754286;81;21437;-63
2022/02/07 02:10:01;;;;;;;5.40;4.65;;;;;;;9.73;54.44;98343.14;1742596;81;21073;-65
2022/02/07 02:12:31;;;;;;;5.67;4.15;;;;;;;9.74;54.40;98346.12;1758820;81;21104;-65
2022/02/07 02:15:23;;;;;;;5.87;4.37;;;;;;;9.73;54.39;98342.62;1763989;81;21093;-65
2022/02/07 02:45:25;;;;;;;4.40;3.83;;;;;;;9.72;54.22;98321.63;1739974;81;21026;-63
2022/02/07 02:46:52;;;;;;;5.35;4.37;;;;;;;9.71;54.18;98310.70;1757132;81;21025;-64
2022/02/07 02:49:21;;;;;;;4.70;4.05;;;;;;;9.71;54.17;98314.16;1747190;81;21024;-64
2022/02/07 02:51:47;;;;;;;4.25;3.70;;;;;;;9.70;54.15;98299.80;1753880;81;21060;-63
2022/02/07 02:54:14;;;;;;;4.78;3.90;;;;;;;9.71;54.15;98300.09;1759720;81;21073;-63
2022/02/07 02:56:40;;;;;;;5.55;4.53;;;;;;;9.69;54.14;98307.43;1742574;81;21531;-64
2022/02/07 02:59:08;;;;;;;5.03;3.90;;;;;;;9.70;54.09;98300.61;1752964;81;21036;-64
2022/02/07 03:01:39;;;;;;;6.58;4.62;;;;;;;9.71;54.08;98316.00;1767371;80;21064;-64
2022/02/07 03:04:14;;;;;;;5.87;4.33;;;;;;;9.71;54.06;98318.14;1759606;81;22118;-65
2022/02/07 03:06:41;;;;;;;6.67;4.00;;;;;;;9.71;54.05;98331.40;1755286;81;21540;-65
2022/02/07 03:09:13;;;;;;;4.40;4.00;;;;;;;9.71;54.00;98314.16;1744240;81;21505;-65
2022/02/07 03:11:36;;;;;;;4.62;4.12;;;;;;;9.71;53.99;98320.79;1760657;81;21083;-65
2022/02/07 03:14:05;;;;;;;4.72;4.00;;;;;;;9.72;53.96;98307.05;1722969;81;21484;-66
2022/02/07 03:16:37;;;;;;;5.28;4.70;;;;;;;9.70;53.94;98320.50;1734085;81;21002;-65
2022/02/07 03:19:15;;;;;;;5.85;4.72;;;;;;;9.72;53.94;98307.05;1739892;81;21018;-64
2022/02/07 03:21:43;;;;;;;4.90;4.00;;;;;;;9.69;53.92;98292.84;1765156;81;22042;-64
2022/02/07 03:24:09;;;;;;;4.80;3.95;;;;;;;9.71;53.91;98307.53;1756788;81;21014;-64
2022/02/07 03:26:43;;;;;;;4.53;3.95;;;;;;;9.72;53.89;98288.48;1762845;81;20978;-64
2022/02/07 03:29:13;;;;;;;4.47;3.60;;;;;;;9.73;53.90;98294.08;1754336;81;21076;-65
2022/02/07 03:31:41;;;;;;;4.60;4.10;;;;;;;9.72;53.89;98291.13;1740002;81;21025;-64
2022/02/07 03:34:08;;;;;;;6.22;4.78;;;;;;;9.71;53.88;98281.02;1750114;81;21145;-64
2022/02/07 03:36:34;;;;;;;4.53;3.80;;;;;;;9.71;53.89;98278.36;1744983;81;21034;-64
2022/02/07 03:39:03;;;;;;;5.70;4.55;;;;;;;9.72;53.87;98283.18;1743376;81;21532;-64
2022/02/07 03:41:30;;;;;;;4.58;4.15;;;;;;;9.71;53.84;98281.02;1747523;81;21317;-64
2022/02/07 03:43:57;;;;;;;5.22;4.00;;;;;;;9.70;53.86;98262.16;1749483;81;21029;-64
2022/02/07 03:46:23;;;;;;;4.70;4.25;;;;;;;9.71;53.84;98265.62;1752193;81;21697;-65
2022/02/07 03:48:51;;;;;;;4.83;3.83;;;;;;;9.71;53.83;98245.73;1743819;81;21635;-65
2022/02/07 03:51:18;;;;;;;4.92;4.37;;;;;;;9.70;53.83;98246.25;1775451;80;22177;-65
2022/02/07 03:53:45;;;;;;;4.28;3.85;;;;;;;9.70;53.83;98235.64;1746499;81;21532;-66
2022/02/07 03:56:11;;;;;;;4.70;4.20;;;;;;;9.70;53.82;98234.83;1751826;81;21016;-65
2022/02/07 03:58:40;;;;;;;5.83;4.17;;;;;;;9.71;53.83;98224.52;1763929;81;21509;-66
2022/02/07 04:01:07;;;;;;;5.58;4.37;;;;;;;9.71;53.83;98224.00;1775041;80;21033;-65
2022/02/07 04:03:36;;;;;;;5.12;4.17;;;;;;;9.70;53.81;98217.08;1748122;80;21007;-65
2022/02/07 04:06:12;;;;;;;4.90;4.37;;;;;;;9.71;53.79;98220.54;1733244;81;21066;-68
2022/02/07 04:08:35;;;;;;;4.12;3.72;;;;;;;9.71;53.80;98213.39;1747596;80;21047;-66
2022/02/07 04:13:36;;;;;;;5.25;4.40;;;;;;;9.71;53.77;98218.70;1749935;80;21065;-65
2022/02/07 04:16:05;;;;;;;4.92;4.42;;;;;;;9.71;53.75;98212.58;1770589;80;21009;-65
2022/02/07 04:18:49;;;;;;;5.12;4.35;;;;;;;9.70;53.76;98217.08;1754069;80;22066;-66
2022/02/07 04:21:04;;;;;;;6.28;4.10;;;;;;;9.71;53.76;98216.56;1744290;80;21656;-65
2022/02/07 04:23:32;;;;;;;4.75;3.90;;;;;;;9.71;53.74;98228.49;1763990;80;21127;-64
2022/02/07 04:26:07;;;;;;;5.05;4.03;;;;;;;9.70;53.74;98210.97;1748550;80;21580;-65
2022/02/07 04:28:33;;;;;;;5.83;4.30;;;;;;;9.70;53.74;98213.62;1759995;80;21059;-64
2022/02/07 04:31:00;;;;;;;4.95;4.08;;;;;;;9.69;53.73;98209.31;1774740;80;21036;-64
2022/02/07 04:33:28;;;;;;;5.45;4.40;;;;;;;9.69;53.72;98209.31;1759122;80;22301;-65
2022/02/07 04:35:55;;;;;;;4.55;4.15;;;;;;;9.68;53.71;98193.08;1770901;80;21100;-66
2022/02/07 04:38:21;;;;;;;5.25;4.10;;;;;;;9.68;53.70;98190.43;1773368;80;20991;-63
2022/02/07 04:40:49;;;;;;;4.62;4.12;;;;;;;9.68;53.69;98185.13;1771511;80;21584;-65
2022/02/07 04:43:17;;;;;;;4.58;4.10;;;;;;;9.68;53.68;98188.62;1773686;80;21042;-65
2022/02/07 04:45:57;;;;;;;5.42;4.45;;;;;;;9.69;53.65;98188.10;1773476;80;20994;-64
2022/02/07 04:58:55;;;;;;;4.75;4.25;;;;;;;9.65;53.59;98183.19;1760160;80;21005;-65
2022/02/07 05:01:13;;;;;;;5.70;4.58;;;;;;;9.65;53.57;98189.01;1746772;80;21142;-64
2022/02/07 05:03:44;;;;;;;5.00;4.12;;;;;;;9.64;53.57;98180.24;1758101;80;21026;-64
2022/02/07 05:14:23;;;;;;;4.53;4.05;;;;;;;9.63;53.52;98189.72;1757901;80;21154;-64
2022/02/07 05:16:53;;;;;;;5.00;4.20;;;;;;;9.62;53.52;98196.86;1757392;79;21000;-65
2022/02/07 05:19:20;;;;;;;5.53;4.22;;;;;;;9.62;53.52;98194.21;1752392;80;21040;-65
2022/02/07 05:21:48;;;;;;;4.75;4.25;;;;;;;9.61;53.54;98197.87;1757453;80;21017;-64
2022/02/07 05:24:34;;;;;;;5.62;4.65;;;;;;;9.61;53.52;98189.91;1689013;84;21580;-64
2022/02/07 05:27:19;;;;;;;5.08;4.33;;;;;;;9.61;53.51;98178.50;1665357;85;21156;-65
2022/02/07 05:29:55;;;;;;;4.92;4.30;;;;;;;9.60;53.52;98186.97;1713436;81;21029;-65
2022/02/07 05:32:40;;;;;;;4.95;4.35;;;;;;;9.61;53.52;98191.75;1774624;80;21097;-64
2022/02/07 05:35:27;;;;;;;6.15;4.47;;;;;;;9.61;53.53;98186.45;1759715;80;21007;-64
2022/02/07 05:37:58;;;;;;;5.70;4.65;;;;;;;9.60;53.53;98181.66;1772266;80;21538;-64
2022/02/07 05:40:53;;;;;;;5.95;4.40;;;;;;;9.58;53.53;98183.70;1753657;80;22100;-64
2022/02/07 05:43:14;;;;;;;4.85;4.10;;;;;;;9.58;53.54;98183.70;1759910;80;20992;-63
2022/02/07 05:45:58;;;;;;;4.97;4.20;;;;;;;9.57;53.56;98182.05;1765577;80;21019;-65
2022/02/07 05:48:42;;;;;;;5.03;4.10;;;;;;;9.57;53.57;98188.68;1756858;80;21499;-65
2022/02/07 05:51:11;;;;;;;5.65;4.65;;;;;;;9.58;53.57;98199.61;1704513;80;21070;-64
2022/02/07 05:53:39;;;;;;;5.65;5.05;;;;;;;9.57;53.57;98196.63;1771354;80;21258;-65
2022/02/07 05:56:07;;;;;;;5.35;4.22;;;;;;;9.57;53.58;98197.95;1778687;80;21072;-63
2022/02/07 05:58:35;;;;;;;5.62;4.50;;;;;;;9.58;53.58;98199.61;1778859;80;21007;-64
2022/02/07 06:01:13;;;;;;;5.87;4.45;;;;;;;9.58;53.58;98200.94;1771741;80;21030;-65
2022/02/07 06:03:40;;;;;;;5.45;4.28;;;;;;;9.58;53.58;98192.14;1780482;80;21031;-63
2022/02/07 06:06:08;;;;;;;5.20;4.20;;;;;;;9.56;53.59;98183.09;1765273;80;21024;-65
2022/02/07 06:08:35;;;;;;;5.00;4.10;;;;;;;9.59;53.60;98182.67;1780279;80;21492;-65
2022/02/07 06:11:06;;;;;;;5.00;4.05;;;;;;;9.58;53.61;98170.93;1762365;81;21157;-66
2022/02/07 06:13:35;;;;;;;5.25;4.72;;;;;;;9.59;53.63;98170.73;1766525;81;21085;-66
2022/02/07 06:16:04;;;;;;;6.50;4.92;;;;;;;9.59;53.61;98178.69;1745045;81;21509;-66
2022/02/07 06:18:31;;;;;;;4.87;4.37;;;;;;;9.60;53.63;98173.70;1740506;81;21207;-64
2022/02/07 06:21:03;;;;;;;5.05;4.45;;;;;;;9.61;53.61;98177.17;1768926;81;21005;-64
2022/02/07 06:23:28;;;;;;;5.05;4.42;;;;;;;9.61;53.62;98167.89;1746630;81;21032;-65
2022/02/07 06:25:57;;;;;;;4.85;4.20;;;;;;;9.62;53.62;98166.89;1740640;81;21013;-64
2022/02/07 06:28:25;;;;;;;5.80;4.50;;;;;;;9.62;53.62;98176.98;1739829;82;21053;-64
2022/02/07 06:30:53;;;;;;;5.90;4.00;;;;;;;9.63;53.61;98160.55;1743478;81;21049;-64
2022/02/07 06:33:22;;;;;;;5.25;4.50;;;;;;;9.64;53.61;98158.22;1747102;81;21084;-64
2022/02/07 06:35:49;;;;;;;4.67;4.17;;;;;;;9.64;53.62;98164.85;1739135;81;21080;-65
2022/02/07 06:38:17;;;;;;;5.30;4.35;;;;;;;9.64;53.62;98152.92;1752159;81;21045;-65
2022/02/07 06:40:45;;;;;;;5.28;4.45;;;;;;;9.64;53.61;98154.25;1769553;81;21095;-64
2022/02/07 06:43:12;;;;;;;5.53;4.83;;;;;;;9.64;53.65;98150.27;1758173;81;21144;-64
2022/02/07 06:45:38;;;;;;;5.33;4.28;;;;;;;9.64;53.61;98148.42;1739652;81;21068;-64
2022/02/07 06:48:05;;;;;;;5.70;4.30;;;;;;;9.64;53.65;98143.13;1724731;81;21093;-64
2022/02/07 06:50:33;;;;;;;5.67;4.60;;;;;;;9.65;53.64;98145.26;1753642;81;21029;-64
2022/02/07 06:53:00;;;;;;;6.28;4.80;;;;;;;9.65;53.63;98160.65;1739932;81;20998;-65
2022/02/07 06:55:28;;;;;;;5.33;4.53;;;;;;;9.66;53.66;98162.81;1739528;82;21962;-65
2022/02/07 06:57:54;;;;;;;5.05;4.22;;;;;;;9.66;53.66;98152.20;1739570;81;21508;-66
2022/02/07 07:00:21;;;;;;;6.03;4.33;;;;;;;9.67;53.66;98156.99;1739680;81;21028;-64
2022/02/07 07:02:51;;;;;;;4.90;4.40;;;;;;;9.69;53.67;98158.94;1741680;81;21013;-64
2022/02/07 07:05:22;;;;;;;4.87;4.22;;;;;;;9.67;53.66;98159.13;1744998;81;21021;-66
2022/02/07 07:07:50;;;;;;;5.65;4.42;;;;;;;9.70;53.68;98168.53;1740050;81;21071;-65
2022/02/07 07:10:17;;;;;;;5.62;4.72;;;;;;;9.68;53.70;98169.22;1742452;81;21079;-65
2022/02/07 07:12:48;;;;;;;4.45;4.05;;;;;;;9.69;53.69;98173.00;1742601;81;21047;-67
2022/02/07 07:15:26;;;;;;;4.35;3.85;;;;;;;9.70;53.73;98169.34;1741908;81;21506;-65
2022/02/07 07:17:43;;;;;;;5.40;4.33;;;;;;;9.70;53.92;98161.39;1762355;81;21003;-66
2022/02/07 07:20:11;;;;;;;6.20;4.35;;;;;;;9.71;53.99;98159.03;1753890;81;21096;-66
2022/02/07 07:22:41;;;;;;;5.35;4.42;;;;;;;9.71;54.01;98186.87;1748765;81;21475;-67
2022/02/07 07:25:14;;;;;;;6.30;4.50;;;;;;;9.72;54.02;98153.23;1751682;81;21041;-65
2022/02/07 07:27:54;;;;;;;6.80;4.78;;;;;;;9.72;54.02;98145.28;1741899;81;21632;-67
2022/02/07 07:30:10;;;;;;;6.40;5.03;;;;;;;9.73;54.01;98153.02;1751092;81;21096;-67
2022/02/07 07:32:38;;;;;;;5.20;4.65;;;;;;;9.73;53.99;98143.73;1754247;81;21298;-67
2022/02/07 07:35:06;;;;;;;5.17;4.67;;;;;;;9.73;54.01;98145.06;1750834;81;21076;-65
2022/02/07 07:37:33;;;;;;;6.67;5.10;;;;;;;9.74;54.00;98149.36;1746931;81;21001;-68
2022/02/07 07:40:01;;;;;;;4.80;4.25;;;;;;;9.75;53.98;98148.84;1742802;81;21520;-65
2022/02/07 07:42:30;;;;;;;5.00;4.37;;;;;;;9.76;53.97;98153.14;1740438;81;22003;-66
2022/02/07 07:45:01;;;;;;;5.22;4.58;;;;;;;9.76;53.96;98134.58;1750694;81;21207;-68
2022/02/07 07:47:34;;;;;;;6.83;5.10;;;;;;;9.77;53.96;98145.48;1751437;81;22083;-66
2022/02/07 07:52:58;;;;;;;5.47;4.50;;;;;;;9.80;53.96;98132.63;1777053;78;28491;-66
2022/02/07 08:03:14;;;;;;;6.40;5.03;;;;;;;9.78;53.95;98120.09;1753379;80;20984;-67
2022/02/07 08:05:53;;;;;;;7.40;5.40;;;;;;;9.78;53.94;98129.89;1777264;80;21052;-67
2022/02/07 08:08:37;;;;;;;5.70;5.10;;;;;;;9.79;53.96;98135.48;1747329;80;21097;-65
2022/02/07 08:11:05;;;;;;;7.75;5.78;;;;;;;9.79;53.94;98123.55;1726521;81;21299;-66
2022/02/07 08:13:32;;;;;;;5.97;4.95;;;;;;;9.79;53.94;98124.88;1748897;80;21110;-67
2022/02/07 08:16:00;;;;;;;7.75;5.22;;;;;;;9.80;53.92;98134.48;1770586;80;21025;-66
2022/02/07 08:18:27;;;;;;;6.00;5.28;;;;;;;9.79;53.95;98128.36;1752181;81;21474;-66
2022/02/07 08:20:53;;;;;;;6.83;5.30;;;;;;;9.81;53.95;98129.47;1748435;81;21594;-67
2022/02/07 08:23:20;;;;;;;6.83;5.75;;;;;;;9.82;53.92;98116.52;1744426;80;21915;-66
2022/02/07 08:25:46;;;;;;;8.28;5.97;;;;;;;9.83;53.92;98118.14;1757504;81;21639;-66
2022/02/07 08:28:13;;;;;;;7.10;5.65;;;;;;;9.84;53.92;98123.77;1759332;81;21053;-67
2022/02/07 08:30:39;;;;;;;6.58;5.60;;;;;;;9.84;53.92;98121.12;1751367;80;20975;-67
2022/02/07 08:33:07;;;;;;;6.70;5.03;;;;;;;9.86;53.89;98114.28;1750013;80;21084;-67
2022/02/07 08:35:33;;;;;;;6.10;5.28;;;;;;;9.87;53.89;98119.88;1756236;80;21127;-64
2022/02/07 08:38:00;;;;;;;7.83;5.87;;;;;;;9.87;53.88;98116.74;1764004;80;21014;-67
2022/02/07 08:40:27;;;;;;;6.40;5.40;;;;;;;9.89;53.86;98109.39;1765734;80;21331;-64
2022/02/07 08:42:54;;;;;;;5.47;4.80;;;;;;;9.87;53.85;98111.92;1758775;80;21062;-66
2022/02/07 08:45:22;;;;;;;7.08;5.70;;;;;;;9.90;53.84;98109.69;1750621;81;21048;-66
2022/02/07 08:47:48;;;;;;;6.50;5.42;;;;;;;9.90;53.83;98112.34;1749323;81;21157;-68
2022/02/07 08:50:14;;;;;;;6.03;5.10;;;;;;;9.92;53.83;98112.95;1746644;80;21179;-65
2022/02/07 08:52:45;;;;;;;8.28;5.55;;;;;;;9.93;53.82;98119.06;1771541;80;21028;-67
2022/02/07 08:55:17;;;;;;;6.80;5.37;;;;;;;9.94;53.80;98112.75;1785840;80;21036;-67
2022/02/07 08:57:45;;;;;;;6.42;5.70;;;;;;;9.94;53.79;98110.91;1763771;78;21087;-67
2022/02/07 09:02:55;;;;;;;5.92;5.17;;;;;;;9.95;53.78;98111.23;1780550;80;21012;-68
2022/02/07 09:05:21;;;;;;;6.97;5.47;;;;;;;9.96;53.76;98116.83;1755258;80;21073;-67
2022/02/07 09:07:45;;;;;;;6.12;5.53;;;;;;;9.97;53.75;98112.36;1799932;78;21001;-66
2022/02/07 09:10:06;;;;;;;6.28;5.60;;;;;;;9.98;53.74;98118.77;1765066;80;21003;-68
2022/02/07 09:12:34;;;;;;;6.67;5.65;;;;;;;9.99;53.74;98108.47;1766593;80;21049;-67
2022/02/07 09:15:17;;;;;;;7.05;5.28;;;;;;;9.99;53.73;98120.41;1765012;80;22381;-65
2022/02/07 09:17:29;;;;;;;7.65;6.12;;;;;;;9.99;53.71;98100.52;1773996;80;21549;-65
2022/02/07 09:19:55;;;;;;;6.83;5.58;;;;;;;10.00;53.72;98119.37;1772235;80;21084;-68
2022/02/07 09:22:22;;;;;;;7.05;5.83;;;;;;;10.01;53.70;98099.80;1783155;78;21507;-68
2022/02/07 09:24:49;;;;;;;6.85;5.72;;;;;;;10.01;53.68;98098.47;1773841;79;21138;-65
2022/02/07 09:27:15;;;;;;;6.75;5.78;;;;;;;10.04;53.64;98107.36;1781679;79;21032;-65
2022/02/07 09:29:42;;;;;;;5.67;5.10;;;;;;;10.04;53.64;98098.08;1779612;79;21032;-67
2022/02/07 09:32:09;;;;;;;6.53;5.75;;;;;;;10.06;53.62;98090.41;1781201;77;21529;-66
2022/02/07 09:34:36;;;;;;;6.40;5.80;;;;;;;10.06;53.61;98099.17;1770752;79;21040;-67
2022/02/07 09:37:02;;;;;;;6.47;5.70;;;;;;;10.08;53.59;98088.36;1773668;79;21096;-67
2022/02/07 09:39:30;;;;;;;5.70;5.00;;;;;;;10.09;53.58;98082.05;1794810;77;21099;-65
2022/02/07 09:41:59;;;;;;;6.55;5.50;;;;;;;10.09;53.57;98086.84;1779380;77;21095;-66
2022/02/07 09:44:29;;;;;;;6.12;5.17;;;;;;;10.10;53.55;98081.01;1789186;77;21001;-67
2022/02/07 09:46:54;;;;;;;6.15;5.12;;;;;;;10.12;53.53;98097.53;1774725;79;21060;-66
2022/02/07 09:49:22;;;;;;;8.18;5.75;;;;;;;10.13;53.52;98091.22;1775709;79;23295;-67
2022/02/07 09:51:49;;;;;;;5.60;4.95;;;;;;;10.10;53.50;98085.83;1780520;77;21491;-64
2022/02/07 09:54:20;;;;;;;6.33;5.22;;;;;;;10.15;53.50;98091.83;1780356;79;21500;-67
2022/02/07 09:56:48;;;;;;;8.28;5.58;;;;;;;10.15;53.48;98089.98;1777292;79;21019;-68
2022/02/07 09:59:17;;;;;;;6.85;5.85;;;;;;;10.16;53.48;98104.91;1809144;77;21021;-65
2022/02/07 10:01:49;;;;;;;6.62;5.92;;;;;;;10.17;53.47;98096.42;1780391;77;21108;-64
2022/02/07 10:04:23;;;;;;;6.10;5.50;;;;;;;10.16;53.45;98096.94;1786463;77;20988;-65
2022/02/07 10:07:09;;;;;;;6.22;5.62;;;;;;;10.17;53.46;98107.84;1773124;79;21094;-65
2022/02/07 10:09:42;;;;;;;6.85;5.25;;;;;;;10.17;53.45;98098.55;1776577;79;21102;-66
2022/02/07 10:12:11;;;;;;;6.67;5.58;;;;;;;10.18;53.43;98111.34;1761838;79;21036;-66
2022/02/07 10:18:01;;;;;;;5.62;5.03;;;;;;;10.22;53.43;98109.38;1796958;78;28106;-66
2022/02/07 10:46:05;;;;;;;6.77;5.73;;;;;;;10.17;53.37;98115.80;1803753;78;21103;-63
2022/02/07 10:48:42;;;;;;;6.97;6.22;;;;;;;10.16;53.38;98114.19;1805287;78;21928;-62
2022/02/07 10:51:32;;;;;;;6.92;6.22;;;;;;;10.16;53.41;98125.29;1774403;80;21286;-63
2022/02/07 10:54:03;;;;;;;7.05;5.78;;;;;;;10.16;53.39;98116.00;1787817;80;21116;-64
2022/02/07 10:56:38;;;;;;;6.70;5.90;;;;;;;10.16;53.41;98125.29;1780858;78;21520;-64
2022/02/07 10:59:10;;;;;;;7.10;5.60;;;;;;;10.16;53.41;98123.96;1790927;79;21018;-64
2022/02/07 11:04:19;;;;;;;7.83;5.50;;;;;;;10.18;53.38;98119.30;1786834;79;21175;-63
2022/02/07 11:06:49;;;;;;;6.20;5.60;;;;;;;10.18;53.36;98110.01;1776497;79;21088;-64
2022/02/07 11:09:23;;;;;;;5.87;5.33;;;;;;;10.19;53.35;98103.66;1784119;79;21119;-63
2022/02/07 11:14:32;;;;;;;6.72;5.72;;;;;;;10.21;53.33;98095.80;1777074;79;21139;-63
2022/02/07 11:22:48;;;;;;;6.97;5.90;;;;;;;10.25;53.26;98080.28;1773208;79;21088;-63
2022/02/07 11:26:26;;;;;;;8.78;6.33;;;;;;;10.25;53.25;98078.95;1763228;79;21041;-68
2022/02/07 11:28:04;;;;;;;7.10;5.62;;;;;;;10.25;53.24;98069.66;1737271;79;21077;-68
2022/02/07 11:30:52;;;;;;;7.47;5.90;;;;;;;10.26;53.23;98069.14;1763668;79;21766;-68
2022/02/07 11:34:01;;;;;;;7.03;5.55;;;;;;;10.25;53.23;98044.45;1765372;79;21539;-68
2022/02/07 11:36:36;;;;;;;6.17;5.25;;;;;;;10.26;53.22;98040.78;1767476;81;21052;-68
2022/02/07 11:39:17;;;;;;;6.97;5.50;;;;;;;10.26;53.23;98036.80;1763835;79;21033;-65
2022/02/07 11:42:02;;;;;;;6.42;5.83;;;;;;;10.26;53.19;98015.58;1771985;79;21045;-67
2022/02/07 11:44:31;;;;;;;7.45;6.03;;;;;;;10.26;53.22;98026.19;1763921;80;21561;-66
2022/02/07 11:47:30;;;;;;;6.15;5.22;;;;;;;10.26;53.22;98020.88;1741288;79;21049;-69
2022/02/07 11:50:00;;;;;;;6.85;5.70;;;;;;;10.27;53.21;98021.69;1768936;79;21067;-65
2022/02/07 11:52:31;;;;;;;7.12;5.58;;;;;;;10.27;53.19;98013.20;1766152;79;21064;-68
2022/02/07 11:55:17;;;;;;;6.20;5.58;;;;;;;10.29;53.17;98010.35;1792580;78;21068;-65
2022/02/07 11:57:54;;;;;;;9.48;6.35;;;;;;;10.29;53.21;98007.17;1757898;80;21014;-67
2022/02/07 12:00:19;;;;;;;8.18;6.22;;;;;;;10.31;53.18;98013.13;1737474;81;21089;-66
2022/02/07 12:02:49;;;;;;;6.72;5.67;;;;;;;10.32;53.15;98010.78;1755951;80;21127;-67
2022/02/07 12:05:22;;;;;;;8.38;6.70;;;;;;;10.35;53.13;98022.81;1756999;80;21053;-69
2022/02/07 12:08:04;;;;;;;7.53;6.35;;;;;;;10.36;53.11;98023.94;1762509;80;22632;-68
2022/02/07 12:13:03;;;;;;;7.60;6.62;;;;;;;10.39;53.09;98042.12;1750835;80;21082;-69
2022/02/07 12:15:35;;;;;;;7.17;5.92;;;;;;;10.43;53.06;98051.29;1761208;79;21080;-68
2022/02/07 12:18:16;;;;;;;6.33;5.50;;;;;;;10.49;53.00;98060.27;1772645;80;21037;-67
2022/02/07 12:20:48;;;;;;;6.58;5.58;;;;;;;10.60;52.91;98084.01;1773335;80;21056;-69
2022/02/07 12:23:21;;;;;;;7.00;5.60;;;;;;;10.74;52.78;98093.59;1741197;80;21321;-69
2022/02/07 12:25:55;;;;;;;7.58;6.17;;;;;;;10.91;52.59;98103.73;1781687;80;21041;-68
2022/02/07 12:33:57;;;;;;;7.17;6.30;;;;;;;11.45;52.12;98093.13;1766454;81;21353;-68
2022/02/07 12:36:26;;;;;;;7.72;6.40;;;;;;;11.63;51.94;98086.27;1762263;80;21164;-68
2022/02/07 12:38:54;;;;;;;8.83;6.42;;;;;;;11.80;51.79;98084.22;1787889;79;21028;-68
2022/02/07 12:41:23;;;;;;;6.95;6.25;;;;;;;11.98;51.67;98091.99;1779816;80;21053;-68
2022/02/07 12:43:50;;;;;;;7.22;6.20;;;;;;;12.17;51.53;98094.19;1754779;81;21093;-68
2022/02/07 12:46:20;;;;;;;7.03;6.35;;;;;;;12.44;51.29;98086.77;1777654;80;21034;-71
2022/02/07 12:48:57;;;;;;;6.83;5.40;;;;;;;12.80;50.92;98090.45;1752126;81;21580;-68
2022/02/07 12:51:27;;;;;;;8.03;6.00;;;;;;;13.23;50.47;98097.53;1751983;81;21045;-66
2022/02/07 12:53:53;;;;;;;6.58;5.58;;;;;;;13.71;49.85;98074.50;1757955;81;21101;-69
2022/02/07 12:56:23;;;;;;;6.62;5.85;;;;;;;14.16;49.25;98087.34;1758197;80;21061;-67
2022/02/07 12:58:51;;;;;;;6.83;5.92;;;;;;;14.58;48.67;98092.56;1755195;81;21088;-69
2022/02/07 13:01:30;;;;;;;6.75;5.80;;;;;;;15.01;48.12;98098.02;1747270;80;21132;-67
2022/02/07 13:04:01;;;;;;;6.17;5.55;;;;;;;15.40;47.55;98099.56;1756844;81;21022;-68
2022/02/07 13:06:41;;;;;;;7.25;5.87;;;;;;;15.77;47.03;98099.17;1796205;78;21076;-68
2022/02/07 13:09:22;;;;;;;6.05;5.30;;;;;;;16.09;46.56;98106.67;1756120;81;21045;-68
2022/02/07 13:12:01;;;;;;;6.65;5.37;;;;;;;16.34;46.16;98114.28;1735356;81;21169;-69
2022/02/07 13:14:18;;;;;;;6.40;5.53;;;;;;;16.50;45.88;98114.78;1774399;80;21144;-69
2022/02/07 13:16:45;;;;;;;6.65;5.95;;;;;;;16.49;45.82;98127.08;1782175;79;21055;-67
2022/02/07 13:19:14;;;;;;;6.22;5.60;;;;;;;16.35;45.97;98121.79;1782397;80;21088;-67
2022/02/07 13:21:47;;;;;;;7.53;5.87;;;;;;;16.14;46.21;98127.36;1781720;79;21045;-68
2022/02/07 13:24:17;;;;;;;6.58;5.17;;;;;;;15.93;46.50;98125.67;1767256;80;21040;-65
2022/02/07 13:26:47;;;;;;;5.75;5.12;;;;;;;15.72;46.77;98136.02;1764198;81;21149;-67
2022/02/07 13:29:28;;;;;;;6.17;5.55;;;;;;;15.53;47.03;98134.59;1757194;80;21059;-67
2022/02/07 13:32:08;;;;;;;6.37;5.50;;;;;;;15.33;47.30;98136.34;1758143;80;21549;-68
2022/02/07 13:34:36;;;;;;;6.30;5.15;;;;;;;15.14;47.55;98136.53;1754381;80;21029;-67
2022/02/07 13:37:16;;;;;;;6.05;5.35;;;;;;;14.99;47.77;98134.88;1753494;81;21040;-69
2022/02/07 13:40:14;;;;;;;5.67;5.10;;;;;;;14.85;47.94;98122.80;1751003;81;21148;-67
2022/02/07 13:42:48;;;;;;;6.05;5.45;;;;;;;14.72;48.10;98118.54;1755978;81;20989;-70
2022/02/07 13:45:25;;;;;;;5.62;5.08;;;;;;;14.60;48.27;98124.41;1757679;80;21100;-67
2022/02/07 13:47:57;;;;;;;7.17;5.33;;;;;;;14.48;48.41;98126.52;1758719;81;21147;-67
2022/02/07 13:50:28;;;;;;;6.45;5.78;;;;;;;14.40;48.54;98120.73;1759628;80;21085;-68
2022/02/07 13:53:00;;;;;;;6.10;5.33;;;;;;;14.32;48.66;98122.69;1756719;81;21102;-68
2022/02/07 13:55:39;;;;;;;7.03;5.65;;;;;;;14.23;48.79;98128.08;1753286;80;21643;-67
2022/02/07 13:58:10;;;;;;;6.65;5.47;;;;;;;14.18;48.86;98123.14;1764117;80;21107;-67
2022/02/07 14:00:40;;;;;;;6.55;5.65;;;;;;;14.11;48.94;98112.58;1748261;80;21565;-68
2022/02/07 14:03:19;;;;;;;6.22;5.22;;;;;;;14.06;49.01;98117.78;1753764;80;21025;-68
2022/02/07 14:05:57;;;;;;;5.78;5.17;;;;;;;14.03;49.05;98118.27;1757962;80;21134;-68
2022/02/07 14:08:36;;;;;;;5.70;4.72;;;;;;;14.00;49.09;98126.19;1756276;81;21073;-67
2022/02/07 14:11:09;;;;;;;5.97;5.33;;;;;;;13.95;49.13;98121.55;1752551;80;21599;-69
2022/02/07 14:13:38;;;;;;;5.78;5.17;;;;;;;13.91;49.15;98127.06;1733498;81;21014;-70
2022/02/07 14:16:06;;;;;;;5.90;5.12;;;;;;;13.85;49.21;98126.65;1747566;81;21081;-67